^^
Station Historical Data
Daily Summary for January 25, 2018 Units:  Both    English   Metric
« Previous Day
Next Day »
Daily Weekly Monthly Yearly Custom
  High: Low: Average:
Temperature: TemperatureF °F /  -17.8 °C 62.4 °F /  16.9 °C 77.4 °F /  25.2 °C
Dew Point: DewpointF °F /  -17.8 °C 37.6 °F /  3.1 °C 41.5 °F /  5.3 °C
Humidity: Humidity% 18% 29%
Wind Speed: WindSpeedMPHmph /  0km/h - 1.5mph /  2.4km/h
Wind Gust: WindSpeedGustMPHmph /  0km/h - -
Wind- - SW
Pressure: PressureIn in /  0 hPa 29.55 in /  1000.6 hPa -
Precipitation: 0.00 in /  0 mm    
Historical Graphs
 
 
Tabular Data for January 25, 2018
Time Temperature Dew Point Pressure Wind Wind Speed Wind Gust Humidity Rainfall Rate (Hourly) solar Conditions
TemperatureF °F /  -17.8 °C DewpointF °F /  -17.8 °C PressureInin /  0hPa Calm     Humidity% HourlyPrecipInin /  0mm SolarRadiationWatts/m^2 W/m2 Conditions
00:01 69.8 °F /  21 °C 37.8 °F /  3.2 °C 29.67in /  1004.6hPa Calm     31% 0.00in /  0mm 0.0 W/m2
00:07 69.6 °F /  20.9 °C 38.5 °F /  3.6 °C 29.67in /  1004.6hPa Calm     32% 0.00in /  0mm 0.0 W/m2
00:12 69.4 °F /  20.8 °C 38.3 °F /  3.5 °C 29.68in /  1005hPa Calm     32% 0.00in /  0mm 0.0 W/m2
00:17 69.4 °F /  20.8 °C 38.3 °F /  3.5 °C 29.67in /  1004.6hPa Calm     32% 0.00in /  0mm 0.0 W/m2
00:22 69.3 °F /  20.7 °C 38.8 °F /  3.8 °C 29.67in /  1004.6hPa Calm     33% 0.00in /  0mm 0.0 W/m2
00:27 69.3 °F /  20.7 °C 38.8 °F /  3.8 °C 29.67in /  1004.6hPa Calm     33% 0.00in /  0mm 0.0 W/m2
00:32 69.1 °F /  20.6 °C 38.8 °F /  3.8 °C 29.67in /  1004.6hPa Calm     33% 0.00in /  0mm 0.0 W/m2
00:37 69.1 °F /  20.6 °C 39.6 °F /  4.2 °C 29.67in /  1004.6hPa Calm     34% 0.00in /  0mm 0.0 W/m2
00:42 68.7 °F /  20.4 °C 39.2 °F /  4 °C 29.67in /  1004.6hPa Calm     34% 0.00in /  0mm 0.0 W/m2
00:48 68.7 °F /  20.4 °C 39.2 °F /  4 °C 29.67in /  1004.6hPa Calm     34% 0.00in /  0mm 0.0 W/m2
00:53 68.5 °F /  20.3 °C 39.0 °F /  3.9 °C 29.67in /  1004.6hPa Calm     34% 0.00in /  0mm 0.0 W/m2
00:58 68.5 °F /  20.3 °C 39.0 °F /  3.9 °C 29.66in /  1004.3hPa Calm   1.0mph /  1.6km/h 34% 0.00in /  0mm 0.0 W/m2
01:03 68.4 °F /  20.2 °C 38.8 °F /  3.8 °C 29.66in /  1004.3hPa Calm     34% 0.00in /  0mm 0.0 W/m2
01:08 68.4 °F /  20.2 °C 38.8 °F /  3.8 °C 29.67in /  1004.6hPa Calm     34% 0.00in /  0mm 0.0 W/m2
01:13 68.2 °F /  20.1 °C 38.7 °F /  3.7 °C 29.66in /  1004.3hPa Calm     34% 0.00in /  0mm 0.0 W/m2
01:18 68.2 °F /  20.1 °C 38.7 °F /  3.7 °C 29.67in /  1004.6hPa Calm     34% 0.00in /  0mm 0.0 W/m2
01:23 68.0 °F /  20 °C 39.4 °F /  4.1 °C 29.67in /  1004.6hPa Calm     35% 0.00in /  0mm 0.0 W/m2
01:29 67.8 °F /  19.9 °C 39.9 °F /  4.4 °C 29.67in /  1004.6hPa Calm     36% 0.00in /  0mm 0.0 W/m2
01:34 67.6 °F /  19.8 °C 39.0 °F /  3.9 °C 29.66in /  1004.3hPa Calm     35% 0.00in /  0mm 0.0 W/m2
01:39 67.5 °F /  19.7 °C 39.6 °F /  4.2 °C 29.66in /  1004.3hPa Calm     36% 0.00in /  0mm 0.0 W/m2
01:44 67.3 °F /  19.6 °C 39.4 °F /  4.1 °C 29.66in /  1004.3hPa Calm     36% 0.00in /  0mm 0.0 W/m2
01:49 66.9 °F /  19.4 °C 39.0 °F /  3.9 °C 29.66in /  1004.3hPa Calm     36% 0.00in /  0mm 0.0 W/m2
01:54 66.7 °F /  19.3 °C 39.0 °F /  3.9 °C 29.66in /  1004.3hPa Calm     36% 0.00in /  0mm 0.0 W/m2
01:59 66.6 °F /  19.2 °C 38.8 °F /  3.8 °C 29.67in /  1004.6hPa Calm     36% 0.00in /  0mm 0.0 W/m2
02:05 66.6 °F /  19.2 °C 39.6 °F /  4.2 °C 29.67in /  1004.6hPa Calm     37% 0.00in /  0mm 0.0 W/m2
02:10 66.4 °F /  19.1 °C 39.4 °F /  4.1 °C 29.66in /  1004.3hPa Calm     37% 0.00in /  0mm 0.0 W/m2
02:15 66.0 °F /  18.9 °C 39.7 °F /  4.3 °C 29.67in /  1004.6hPa Calm     38% 0.00in /  0mm 0.0 W/m2
02:20 66.0 °F /  18.9 °C 39.7 °F /  4.3 °C 29.66in /  1004.3hPa Calm     38% 0.00in /  0mm 0.0 W/m2
02:25 65.8 °F /  18.8 °C 39.6 °F /  4.2 °C 29.66in /  1004.3hPa Calm     38% 0.00in /  0mm 0.0 W/m2
02:30 65.7 °F /  18.7 °C 39.4 °F /  4.1 °C 29.66in /  1004.3hPa SSE 2.0mph /  3.2km/h 2.0mph /  3.2km/h 38% 0.00in /  0mm 0.0 W/m2
02:35 65.5 °F /  18.6 °C 39.2 °F /  4 °C 29.66in /  1004.3hPa Calm     38% 0.00in /  0mm 0.0 W/m2
02:40 65.3 °F /  18.5 °C 39.0 °F /  3.9 °C 29.66in /  1004.3hPa Calm     38% 0.00in /  0mm 0.0 W/m2
02:46 65.1 °F /  18.4 °C 39.6 °F /  4.2 °C 29.66in /  1004.3hPa Calm     39% 0.00in /  0mm 0.0 W/m2
02:51 64.9 °F /  18.3 °C 39.4 °F /  4.1 °C 29.66in /  1004.3hPa Calm     39% 0.00in /  0mm 0.0 W/m2
02:57 64.8 °F /  18.2 °C 39.2 °F /  4 °C 29.66in /  1004.3hPa Calm     39% 0.00in /  0mm 0.0 W/m2
03:02 64.8 °F /  18.2 °C 38.5 °F /  3.6 °C 29.66in /  1004.3hPa Calm   1.0mph /  1.6km/h 38% 0.00in /  0mm 0.0 W/m2
03:07 64.6 °F /  18.1 °C 38.5 °F /  3.6 °C 29.66in /  1004.3hPa Calm   1.0mph /  1.6km/h 38% 0.00in /  0mm 0.0 W/m2
03:12 64.2 °F /  17.9 °C 38.1 °F /  3.4 °C 29.66in /  1004.3hPa Calm     38% 0.00in /  0mm 0.0 W/m2
03:17 64.2 °F /  17.9 °C 38.1 °F /  3.4 °C 29.66in /  1004.3hPa SE 0.9mph /  1.4km/h 1.0mph /  1.6km/h 38% 0.00in /  0mm 0.0 W/m2
03:22 64.0 °F /  17.8 °C 37.9 °F /  3.3 °C 29.66in /  1004.3hPa Calm   1.0mph /  1.6km/h 38% 0.00in /  0mm 0.0 W/m2
03:27 64.0 °F /  17.8 °C 37.9 °F /  3.3 °C 29.65in /  1003.9hPa Calm   1.0mph /  1.6km/h 38% 0.00in /  0mm 0.0 W/m2
03:32 63.9 °F /  17.7 °C 37.8 °F /  3.2 °C 29.65in /  1003.9hPa Calm   1.0mph /  1.6km/h 38% 0.00in /  0mm 0.0 W/m2
03:37 63.9 °F /  17.7 °C 37.8 °F /  3.2 °C 29.65in /  1003.9hPa Calm   1.0mph /  1.6km/h 38% 0.00in /  0mm 0.0 W/m2
03:43 63.7 °F /  17.6 °C 38.3 °F /  3.5 °C 29.65in /  1003.9hPa SE 0.9mph /  1.4km/h 1.0mph /  1.6km/h 39% 0.00in /  0mm 0.0 W/m2
03:48 63.7 °F /  17.6 °C 37.6 °F /  3.1 °C 29.65in /  1003.9hPa Calm   1.0mph /  1.6km/h 38% 0.00in /  0mm 0.0 W/m2
03:53 63.7 °F /  17.6 °C 38.3 °F /  3.5 °C 29.65in /  1003.9hPa Calm   1.0mph /  1.6km/h 39% 0.00in /  0mm 0.0 W/m2
03:58 63.5 °F /  17.5 °C 38.1 °F /  3.4 °C 29.65in /  1003.9hPa Calm   1.0mph /  1.6km/h 39% 0.00in /  0mm 0.0 W/m2
04:03 63.3 °F /  17.4 °C 37.9 °F /  3.3 °C 29.65in /  1003.9hPa Calm     39% 0.00in /  0mm 0.0 W/m2
04:08 63.3 °F /  17.4 °C 38.7 °F /  3.7 °C 29.65in /  1003.9hPa Calm     40% 0.00in /  0mm 0.0 W/m2
04:13 63.3 °F /  17.4 °C 38.7 °F /  3.7 °C 29.65in /  1003.9hPa Calm     40% 0.00in /  0mm 0.0 W/m2
04:18 63.1 °F /  17.3 °C 38.5 °F /  3.6 °C 29.65in /  1003.9hPa Calm     40% 0.00in /  0mm 0.0 W/m2
04:23 63.0 °F /  17.2 °C 38.8 °F /  3.8 °C 29.65in /  1003.9hPa Calm     41% 0.00in /  0mm 0.0 W/m2
04:28 62.8 °F /  17.1 °C 38.7 °F /  3.7 °C 29.65in /  1003.9hPa Calm     41% 0.00in /  0mm 0.0 W/m2
04:34 62.6 °F /  17 °C 38.5 °F /  3.6 °C 29.65in /  1003.9hPa Calm     41% 0.00in /  0mm 0.0 W/m2
04:39 62.4 °F /  16.9 °C 39.0 °F /  3.9 °C 29.65in /  1003.9hPa Calm     42% 0.00in /  0mm 0.0 W/m2
04:44 62.4 °F /  16.9 °C 38.5 °F /  3.6 °C 29.65in /  1003.9hPa Calm   1.0mph /  1.6km/h 41% 0.00in /  0mm 0.0 W/m2
04:49 62.4 °F /  16.9 °C 38.5 °F /  3.6 °C 29.65in /  1003.9hPa Calm     41% 0.00in /  0mm 0.0 W/m2
04:54 62.4 °F /  16.9 °C 38.5 °F /  3.6 °C 29.66in /  1004.3hPa Calm     41% 0.00in /  0mm 0.0 W/m2
04:59 62.4 °F /  16.9 °C 37.8 °F /  3.2 °C 29.66in /  1004.3hPa Calm   1.0mph /  1.6km/h 40% 0.00in /  0mm 0.0 W/m2
05:04 62.8 °F /  17.1 °C 38.1 °F /  3.4 °C 29.65in /  1003.9hPa Calm     40% 0.00in /  0mm 0.0 W/m2
05:09 62.8 °F /  17.1 °C 38.1 °F /  3.4 °C 29.66in /  1004.3hPa Calm     40% 0.00in /  0mm 0.0 W/m2
05:14 63.0 °F /  17.2 °C 38.8 °F /  3.8 °C 29.66in /  1004.3hPa Calm     41% 0.00in /  0mm 0.0 W/m2
05:20 63.1 °F /  17.3 °C 38.5 °F /  3.6 °C 29.66in /  1004.3hPa Calm   2.0mph /  3.2km/h 40% 0.00in /  0mm 0.0 W/m2
05:25 63.1 °F /  17.3 °C 38.5 °F /  3.6 °C 29.66in /  1004.3hPa Calm   4.0mph /  6.4km/h 40% 0.00in /  0mm 0.0 W/m2
05:30 63.1 °F /  17.3 °C 38.5 °F /  3.6 °C 29.66in /  1004.3hPa Calm   1.0mph /  1.6km/h 40% 0.00in /  0mm 0.0 W/m2
05:35 63.1 °F /  17.3 °C 38.5 °F /  3.6 °C 29.66in /  1004.3hPa Calm   2.0mph /  3.2km/h 40% 0.00in /  0mm 0.0 W/m2
05:40 63.1 °F /  17.3 °C 38.5 °F /  3.6 °C 29.66in /  1004.3hPa Calm     40% 0.00in /  0mm 0.0 W/m2
05:45 63.1 °F /  17.3 °C 38.5 °F /  3.6 °C 29.66in /  1004.3hPa Calm   1.0mph /  1.6km/h 40% 0.00in /  0mm 0.0 W/m2
05:50 63.3 °F /  17.4 °C 38.7 °F /  3.7 °C 29.66in /  1004.3hPa Calm   1.0mph /  1.6km/h 40% 0.00in /  0mm 0.0 W/m2
05:55 63.3 °F /  17.4 °C 37.9 °F /  3.3 °C 29.66in /  1004.3hPa Calm   1.0mph /  1.6km/h 39% 0.00in /  0mm 0.0 W/m2
06:01 63.5 °F /  17.5 °C 38.1 °F /  3.4 °C 29.67in /  1004.6hPa Calm   1.0mph /  1.6km/h 39% 0.00in /  0mm 0.0 W/m2
06:06 63.7 °F /  17.6 °C 38.3 °F /  3.5 °C 29.67in /  1004.6hPa Calm     39% 0.00in /  0mm 0.0 W/m2
06:11 63.7 °F /  17.6 °C 38.8 °F /  3.8 °C 29.67in /  1004.6hPa Calm     40% 0.00in /  0mm 0.0 W/m2
06:16 63.7 °F /  17.6 °C 39.6 °F /  4.2 °C 29.67in /  1004.6hPa Calm     41% 0.00in /  0mm 0.0 W/m2
06:21 63.7 °F /  17.6 °C 38.8 °F /  3.8 °C 29.67in /  1004.6hPa Calm     40% 0.00in /  0mm 0.0 W/m2
06:26 63.9 °F /  17.7 °C 38.5 °F /  3.6 °C 29.67in /  1004.6hPa East 0.9mph /  1.4km/h 1.0mph /  1.6km/h 39% 0.00in /  0mm 0.0 W/m2
06:31 63.9 °F /  17.7 °C 38.5 °F /  3.6 °C 29.67in /  1004.6hPa Calm   1.0mph /  1.6km/h 39% 0.00in /  0mm 7.0 W/m2
06:36 63.9 °F /  17.7 °C 38.5 °F /  3.6 °C 29.68in /  1005hPa Calm   1.0mph /  1.6km/h 39% 0.00in /  0mm 11.0 W/m2
06:42 63.9 °F /  17.7 °C 38.5 °F /  3.6 °C 29.68in /  1005hPa Calm     39% 0.00in /  0mm 14.0 W/m2
06:47 64.0 °F /  17.8 °C 38.7 °F /  3.7 °C 29.68in /  1005hPa Calm   1.0mph /  1.6km/h 39% 0.00in /  0mm 19.0 W/m2
06:52 64.0 °F /  17.8 °C 38.7 °F /  3.7 °C 29.68in /  1005hPa East 0.9mph /  1.4km/h 1.0mph /  1.6km/h 39% 0.00in /  0mm 21.0 W/m2
06:57 64.2 °F /  17.9 °C 38.7 °F /  3.7 °C 29.68in /  1005hPa Calm   2.0mph /  3.2km/h 39% 0.00in /  0mm 18.0 W/m2
07:02 64.2 °F /  17.9 °C 38.7 °F /  3.7 °C 29.68in /  1005hPa Calm   2.0mph /  3.2km/h 39% 0.00in /  0mm 18.0 W/m2
07:07 64.2 °F /  17.9 °C 38.7 °F /  3.7 °C 29.69in /  1005.3hPa NE 2.9mph /  4.7km/h 4.0mph /  6.4km/h 39% 0.00in /  0mm 19.0 W/m2
07:22 64.8 °F /  18.2 °C 39.2 °F /  4 °C 29.70in /  1005.6hPa Calm   1.0mph /  1.6km/h 39% 0.00in /  0mm 25.0 W/m2
07:32 64.9 °F /  18.3 °C 39.4 °F /  4.1 °C 29.70in /  1005.6hPa Calm     39% 0.00in /  0mm 28.0 W/m2
07:43 65.5 °F /  18.6 °C 39.9 °F /  4.4 °C 29.70in /  1005.6hPa Calm     39% 0.00in /  0mm 100.0 W/m2
07:53 66.2 °F /  19 °C 39.9 °F /  4.4 °C 29.70in /  1005.6hPa Calm   1.0mph /  1.6km/h 38% 0.00in /  0mm 239.0 W/m2
08:03 66.9 °F /  19.4 °C 40.5 °F /  4.7 °C 29.70in /  1005.6hPa Calm     38% 0.00in /  0mm 330.0 W/m2
08:13 68.4 °F /  20.2 °C 39.6 °F /  4.2 °C 29.70in /  1005.6hPa Calm   1.0mph /  1.6km/h 35% 0.00in /  0mm 371.0 W/m2
08:24 70.2 °F /  21.2 °C 38.8 °F /  3.8 °C 29.70in /  1005.6hPa Calm     32% 0.00in /  0mm 413.0 W/m2
08:34 71.4 °F /  21.9 °C 39.2 °F /  4 °C 29.70in /  1005.6hPa Calm     31% 0.00in /  0mm 454.0 W/m2
08:43 73.8 °F /  23.2 °C 40.5 °F /  4.7 °C 29.70in /  1005.6hPa Calm   1.0mph /  1.6km/h 30% 0.00in /  0mm 480.0 W/m2
08:48 74.8 °F /  23.8 °C 40.5 °F /  4.7 °C 29.70in /  1005.6hPa NNW 0.9mph /  1.4km/h 2.0mph /  3.2km/h 29% 0.00in /  0mm 512.0 W/m2
08:53 75.0 °F /  23.9 °C 40.6 °F /  4.8 °C 29.70in /  1005.6hPa NW 0.9mph /  1.4km/h 1.0mph /  1.6km/h 29% 0.00in /  0mm 529.0 W/m2
08:59 75.2 °F /  24 °C 40.8 °F /  4.9 °C 29.70in /  1005.6hPa Calm   1.0mph /  1.6km/h 29% 0.00in /  0mm 545.0 W/m2
09:04 75.6 °F /  24.2 °C 41.0 °F /  5 °C 29.70in /  1005.6hPa NNW 0.9mph /  1.4km/h 2.0mph /  3.2km/h 29% 0.00in /  0mm 564.0 W/m2
09:09 76.5 °F /  24.7 °C 41.9 °F /  5.5 °C 29.70in /  1005.6hPa West 0.9mph /  1.4km/h 4.0mph /  6.4km/h 29% 0.00in /  0mm 557.0 W/m2
09:14 76.6 °F /  24.8 °C 42.1 °F /  5.6 °C 29.70in /  1005.6hPa Calm   1.0mph /  1.6km/h 29% 0.00in /  0mm 169.0 W/m2
09:19 76.5 °F /  24.7 °C 42.8 °F /  6 °C 29.70in /  1005.6hPa Calm   1.0mph /  1.6km/h 30% 0.00in /  0mm 464.0 W/m2
09:24 76.6 °F /  24.8 °C 42.1 °F /  5.6 °C 29.70in /  1005.6hPa Calm   2.0mph /  3.2km/h 29% 0.00in /  0mm 424.0 W/m2
09:29 76.8 °F /  24.9 °C 42.1 °F /  5.6 °C 29.70in /  1005.6hPa NNW 2.0mph /  3.2km/h 2.0mph /  3.2km/h 29% 0.00in /  0mm 274.0 W/m2
09:34 77.4 °F /  25.2 °C 42.6 °F /  5.9 °C 29.70in /  1005.6hPa Calm   1.0mph /  1.6km/h 29% 0.00in /  0mm 462.0 W/m2
09:39 77.5 °F /  25.3 °C 42.8 °F /  6 °C 29.70in /  1005.6hPa NNW 2.0mph /  3.2km/h 5.0mph /  8km/h 29% 0.00in /  0mm 445.0 W/m2
09:44 78.1 °F /  25.6 °C 43.2 °F /  6.2 °C 29.70in /  1005.6hPa NW 0.9mph /  1.4km/h 2.0mph /  3.2km/h 29% 0.00in /  0mm 441.0 W/m2
09:50 78.3 °F /  25.7 °C 43.3 °F /  6.3 °C 29.70in /  1005.6hPa NNW 2.0mph /  3.2km/h 5.0mph /  8km/h 29% 0.00in /  0mm 327.0 W/m2
09:55 78.6 °F /  25.9 °C 44.6 °F /  7 °C 29.70in /  1005.6hPa Calm   4.0mph /  6.4km/h 30% 0.00in /  0mm 752.0 W/m2
10:00 79.0 °F /  26.1 °C 45.7 °F /  7.6 °C 29.70in /  1005.6hPa Calm     31% 0.00in /  0mm 798.0 W/m2
10:05 79.3 °F /  26.3 °C 45.1 °F /  7.3 °C 29.69in /  1005.3hPa South 0.9mph /  1.4km/h 2.0mph /  3.2km/h 30% 0.00in /  0mm 835.0 W/m2
10:10 79.9 °F /  26.6 °C 45.7 °F /  7.6 °C 29.69in /  1005.3hPa West 0.9mph /  1.4km/h 5.0mph /  8km/h 30% 0.00in /  0mm 914.0 W/m2
10:15 80.1 °F /  26.7 °C 45.9 °F /  7.7 °C 29.69in /  1005.3hPa NNW 0.9mph /  1.4km/h 1.0mph /  1.6km/h 30% 0.00in /  0mm 856.0 W/m2
10:20 80.6 °F /  27 °C 47.1 °F /  8.4 °C 29.69in /  1005.3hPa WSW 2.0mph /  3.2km/h 5.0mph /  8km/h 31% 0.00in /  0mm 925.0 W/m2
10:25 80.6 °F /  27 °C 46.2 °F /  7.9 °C 29.69in /  1005.3hPa SSW 2.0mph /  3.2km/h 5.0mph /  8km/h 30% 0.00in /  0mm 1016.0 W/m2
10:31 81.0 °F /  27.2 °C 46.6 °F /  8.1 °C 29.68in /  1005hPa Calm   1.0mph /  1.6km/h 30% 0.00in /  0mm 953.0 W/m2
10:36 81.7 °F /  27.6 °C 46.4 °F /  8 °C 29.68in /  1005hPa Calm   3.0mph /  4.8km/h 29% 0.00in /  0mm 1158.0 W/m2
10:41 82.2 °F /  27.9 °C 46.8 °F /  8.2 °C 29.68in /  1005hPa Calm   5.0mph /  8km/h 29% 0.00in /  0mm 267.0 W/m2
10:46 82.2 °F /  27.9 °C 45.9 °F /  7.7 °C 29.68in /  1005hPa Calm   4.0mph /  6.4km/h 28% 0.00in /  0mm 232.0 W/m2
10:51 82.0 °F /  27.8 °C 45.7 °F /  7.6 °C 29.68in /  1005hPa Calm     28% 0.00in /  0mm 960.0 W/m2
10:56 82.2 °F /  27.9 °C 45.9 °F /  7.7 °C 29.68in /  1005hPa Calm   3.0mph /  4.8km/h 28% 0.00in /  0mm 970.0 W/m2
11:01 82.4 °F /  28 °C 46.0 °F /  7.8 °C 29.68in /  1005hPa Calm   3.0mph /  4.8km/h 28% 0.00in /  0mm 1048.0 W/m2
11:06 82.4 °F /  28 °C 45.1 °F /  7.3 °C 29.68in /  1005hPa Calm   4.0mph /  6.4km/h 27% 0.00in /  0mm 1014.0 W/m2
11:12 82.6 °F /  28.1 °C 46.2 °F /  7.9 °C 29.68in /  1005hPa Calm   5.0mph /  8km/h 28% 0.00in /  0mm 997.0 W/m2
11:18 83.5 °F /  28.6 °C 46.0 °F /  7.8 °C 29.68in /  1005hPa NNW 2.9mph /  4.7km/h 6.0mph /  9.7km/h 27% 0.00in /  0mm 974.0 W/m2
11:23 84.2 °F /  29 °C 45.7 °F /  7.6 °C 29.68in /  1005hPa WNW 4.9mph /  7.9km/h 7.0mph /  11.3km/h 26% 0.00in /  0mm 972.0 W/m2
11:28 84.2 °F /  29 °C 45.7 °F /  7.6 °C 29.67in /  1004.6hPa NNE 2.0mph /  3.2km/h 8.0mph /  12.9km/h 26% 0.00in /  0mm 977.0 W/m2
11:33 84.7 °F /  29.3 °C 43.9 °F /  6.6 °C 29.67in /  1004.6hPa WSW 4.9mph /  7.9km/h 7.0mph /  11.3km/h 24% 0.00in /  0mm 979.0 W/m2
11:38 84.9 °F /  29.4 °C 44.1 °F /  6.7 °C 29.67in /  1004.6hPa NNE 2.9mph /  4.7km/h 6.0mph /  9.7km/h 24% 0.00in /  0mm 991.0 W/m2
11:43 85.6 °F /  29.8 °C 44.8 °F /  7.1 °C 29.67in /  1004.6hPa NNE 2.9mph /  4.7km/h 4.0mph /  6.4km/h 24% 0.00in /  0mm 997.0 W/m2
11:48 86.2 °F /  30.1 °C 44.1 °F /  6.7 °C 29.67in /  1004.6hPa WNW 4.0mph /  6.4km/h 5.0mph /  8km/h 23% 0.00in /  0mm 1004.0 W/m2
11:53 86.5 °F /  30.3 °C 43.2 °F /  6.2 °C 29.67in /  1004.6hPa WNW 2.0mph /  3.2km/h 6.0mph /  9.7km/h 22% 0.00in /  0mm 1011.0 W/m2
11:59 87.3 °F /  30.7 °C 43.7 °F /  6.5 °C 29.67in /  1004.6hPa NNW 2.9mph /  4.7km/h 8.0mph /  12.9km/h 22% 0.00in /  0mm 1020.0 W/m2
12:04 87.6 °F /  30.9 °C 44.1 °F /  6.7 °C 29.67in /  1004.6hPa North 2.9mph /  4.7km/h 12.0mph /  19.3km/h 22% 0.00in /  0mm 1028.0 W/m2
12:09 88.2 °F /  31.2 °C 44.6 °F /  7 °C 29.66in /  1004.3hPa WSW 2.0mph /  3.2km/h 5.0mph /  8km/h 22% 0.00in /  0mm 1035.0 W/m2
12:14 88.2 °F /  31.2 °C 44.6 °F /  7 °C 29.66in /  1004.3hPa WSW 4.0mph /  6.4km/h 4.0mph /  6.4km/h 22% 0.00in /  0mm 1044.0 W/m2
12:19 87.6 °F /  30.9 °C 44.1 °F /  6.7 °C 29.66in /  1004.3hPa SW 0.9mph /  1.4km/h 6.0mph /  9.7km/h 22% 0.00in /  0mm 1074.0 W/m2
12:25 86.7 °F /  30.4 °C 44.4 °F /  6.9 °C 29.65in /  1003.9hPa SSW 4.9mph /  7.9km/h 5.0mph /  8km/h 23% 0.00in /  0mm 1102.0 W/m2
12:30 86.7 °F /  30.4 °C 44.4 °F /  6.9 °C 29.65in /  1003.9hPa WNW 6.9mph /  11.1km/h 17.0mph /  27.4km/h 23% 0.00in /  0mm 1102.0 W/m2
12:35 87.3 °F /  30.7 °C 45.0 °F /  7.2 °C 29.65in /  1003.9hPa West 6.0mph /  9.7km/h 9.0mph /  14.5km/h 23% 0.00in /  0mm 1095.0 W/m2
12:40 87.4 °F /  30.8 °C 45.1 °F /  7.3 °C 29.65in /  1003.9hPa WSW 2.0mph /  3.2km/h 5.0mph /  8km/h 23% 0.00in /  0mm 1076.0 W/m2
12:45 87.4 °F /  30.8 °C 43.9 °F /  6.6 °C 29.65in /  1003.9hPa WNW 0.9mph /  1.4km/h 6.0mph /  9.7km/h 22% 0.00in /  0mm 1060.0 W/m2
12:51 88.0 °F /  31.1 °C 44.4 °F /  6.9 °C 29.65in /  1003.9hPa West 6.9mph /  11.1km/h 8.0mph /  12.9km/h 22% 0.00in /  0mm 1058.0 W/m2
12:56 88.5 °F /  31.4 °C 44.8 °F /  7.1 °C 29.64in /  1003.6hPa WNW 2.0mph /  3.2km/h 11.0mph /  17.7km/h 22% 0.00in /  0mm 1058.0 W/m2
13:01 89.4 °F /  31.9 °C 45.5 °F /  7.5 °C 29.64in /  1003.6hPa NW 2.9mph /  4.7km/h 4.0mph /  6.4km/h 22% 0.00in /  0mm 1063.0 W/m2
13:06 89.8 °F /  32.1 °C 44.6 °F /  7 °C 29.64in /  1003.6hPa WSW 4.0mph /  6.4km/h 7.0mph /  11.3km/h 21% 0.00in /  0mm 1079.0 W/m2
13:11 89.1 °F /  31.7 °C 44.1 °F /  6.7 °C 29.64in /  1003.6hPa NE 2.0mph /  3.2km/h 6.0mph /  9.7km/h 21% 0.00in /  0mm 1130.0 W/m2
13:16 88.7 °F /  31.5 °C 43.7 °F /  6.5 °C 29.64in /  1003.6hPa NW 6.0mph /  9.7km/h 7.0mph /  11.3km/h 21% 0.00in /  0mm 1111.0 W/m2
13:21 88.9 °F /  31.6 °C 43.9 °F /  6.6 °C 29.64in /  1003.6hPa Calm   7.0mph /  11.3km/h 21% 0.00in /  0mm 1092.0 W/m2
13:26 89.4 °F /  31.9 °C 44.4 °F /  6.9 °C 29.63in /  1003.3hPa WSW 4.9mph /  7.9km/h 8.0mph /  12.9km/h 21% 0.00in /  0mm 1088.0 W/m2
13:31 89.8 °F /  32.1 °C 44.6 °F /  7 °C 29.63in /  1003.3hPa NNW 2.0mph /  3.2km/h 8.0mph /  12.9km/h 21% 0.00in /  0mm 1153.0 W/m2
13:36 90.3 °F /  32.4 °C 45.1 °F /  7.3 °C 29.63in /  1003.3hPa WSW 2.0mph /  3.2km/h 6.0mph /  9.7km/h 21% 0.00in /  0mm 1146.0 W/m2
13:42 89.6 °F /  32 °C 43.2 °F /  6.2 °C 29.63in /  1003.3hPa Calm   6.0mph /  9.7km/h 20% 0.00in /  0mm 1218.0 W/m2
13:47 89.8 °F /  32.1 °C 44.6 °F /  7 °C 29.63in /  1003.3hPa North 4.0mph /  6.4km/h 7.0mph /  11.3km/h 21% 0.00in /  0mm 1236.0 W/m2
13:52 90.7 °F /  32.6 °C 44.1 °F /  6.7 °C 29.62in /  1002.9hPa NW 4.9mph /  7.9km/h 11.0mph /  17.7km/h 20% 0.00in /  0mm 1062.0 W/m2
13:57 91.9 °F /  33.3 °C 45.1 °F /  7.3 °C 29.62in /  1002.9hPa SSW 2.9mph /  4.7km/h 10.0mph /  16.1km/h 20% 0.00in /  0mm 1236.0 W/m2
14:02 92.7 °F /  33.7 °C 44.4 °F /  6.9 °C 29.62in /  1002.9hPa NNE 2.9mph /  4.7km/h 9.0mph /  14.5km/h 19% 0.00in /  0mm 1322.0 W/m2
14:07 93.0 °F /  33.9 °C 43.3 °F /  6.3 °C 29.62in /  1002.9hPa NNW 4.9mph /  7.9km/h 5.0mph /  8km/h 18% 0.00in /  0mm 1225.0 W/m2
14:12 92.7 °F /  33.7 °C 44.4 °F /  6.9 °C 29.62in /  1002.9hPa Calm   4.0mph /  6.4km/h 19% 0.00in /  0mm 587.0 W/m2
14:17 92.7 °F /  33.7 °C 44.4 °F /  6.9 °C 29.61in /  1002.6hPa WSW 2.9mph /  4.7km/h 5.0mph /  8km/h 19% 0.00in /  0mm 640.0 W/m2
14:22 91.9 °F /  33.3 °C 43.7 °F /  6.5 °C 29.61in /  1002.6hPa Calm   3.0mph /  4.8km/h 19% 0.00in /  0mm 471.0 W/m2
14:28 91.8 °F /  33.2 °C 45.0 °F /  7.2 °C 29.61in /  1002.6hPa North 2.0mph /  3.2km/h 9.0mph /  14.5km/h 20% 0.00in /  0mm 563.0 W/m2
14:33 91.8 °F /  33.2 °C 45.0 °F /  7.2 °C 29.61in /  1002.6hPa NNE 6.9mph /  11.1km/h 7.0mph /  11.3km/h 20% 0.00in /  0mm 563.0 W/m2
14:38 91.8 °F /  33.2 °C 45.0 °F /  7.2 °C 29.61in /  1002.6hPa Calm   2.0mph /  3.2km/h 20% 0.00in /  0mm 1220.0 W/m2
14:43 92.5 °F /  33.6 °C 44.2 °F /  6.8 °C 29.61in /  1002.6hPa SW 6.0mph /  9.7km/h 8.0mph /  12.9km/h 19% 0.00in /  0mm 1153.0 W/m2
14:48 92.5 °F /  33.6 °C 44.2 °F /  6.8 °C 29.61in /  1002.6hPa West 2.9mph /  4.7km/h 9.0mph /  14.5km/h 19% 0.00in /  0mm 1162.0 W/m2
14:53 91.6 °F /  33.1 °C 44.8 °F /  7.1 °C 29.60in /  1002.3hPa NNW 11.0mph /  17.7km/h 11.0mph /  17.7km/h 20% 0.00in /  0mm 390.0 W/m2
14:58 91.6 °F /  33.1 °C 43.5 °F /  6.4 °C 29.60in /  1002.3hPa North 2.0mph /  3.2km/h 6.0mph /  9.7km/h 19% 0.00in /  0mm 501.0 W/m2
15:03 91.8 °F /  33.2 °C 45.0 °F /  7.2 °C 29.60in /  1002.3hPa West 6.9mph /  11.1km/h 10.0mph /  16.1km/h 20% 0.00in /  0mm 501.0 W/m2
15:08 91.6 °F /  33.1 °C 44.8 °F /  7.1 °C 29.60in /  1002.3hPa SW 0.9mph /  1.4km/h 7.0mph /  11.3km/h 20% 0.00in /  0mm 606.0 W/m2
15:14 91.8 °F /  33.2 °C 43.7 °F /  6.5 °C 29.60in /  1002.3hPa WNW 2.0mph /  3.2km/h 5.0mph /  8km/h 19% 0.00in /  0mm 1056.0 W/m2
15:19 91.0 °F /  32.8 °C 43.0 °F /  6.1 °C 29.60in /  1002.3hPa WSW 4.0mph /  6.4km/h 6.0mph /  9.7km/h 19% 0.00in /  0mm 304.0 W/m2
15:24 90.0 °F /  32.2 °C 43.5 °F /  6.4 °C 29.60in /  1002.3hPa Calm   5.0mph /  8km/h 20% 0.00in /  0mm 281.0 W/m2
15:29 90.1 °F /  32.3 °C 43.7 °F /  6.5 °C 29.59in /  1001.9hPa NNE 2.9mph /  4.7km/h 10.0mph /  16.1km/h 20% 0.00in /  0mm 1028.0 W/m2
15:34 91.0 °F /  32.8 °C 44.4 °F /  6.9 °C 29.59in /  1001.9hPa Calm   5.0mph /  8km/h 20% 0.00in /  0mm 1114.0 W/m2
15:39 91.6 °F /  33.1 °C 44.8 °F /  7.1 °C 29.59in /  1001.9hPa North 2.0mph /  3.2km/h 7.0mph /  11.3km/h 20% 0.00in /  0mm 1104.0 W/m2
15:44 91.8 °F /  33.2 °C 45.0 °F /  7.2 °C 29.59in /  1001.9hPa NW 2.9mph /  4.7km/h 9.0mph /  14.5km/h 20% 0.00in /  0mm 1053.0 W/m2
15:49 92.3 °F /  33.5 °C 44.1 °F /  6.7 °C 29.59in /  1001.9hPa Calm   10.0mph /  16.1km/h 19% 0.00in /  0mm 1055.0 W/m2
15:55 92.7 °F /  33.7 °C 44.4 °F /  6.9 °C 29.58in /  1001.6hPa Calm   7.0mph /  11.3km/h 19% 0.00in /  0mm 1055.0 W/m2
16:00 92.8 °F /  33.8 °C 44.6 °F /  7 °C 29.58in /  1001.6hPa NNE 2.0mph /  3.2km/h 7.0mph /  11.3km/h 19% 0.00in /  0mm 918.0 W/m2
16:05 92.8 °F /  33.8 °C 44.6 °F /  7 °C 29.58in /  1001.6hPa NNW 2.9mph /  4.7km/h 4.0mph /  6.4km/h 19% 0.00in /  0mm 279.0 W/m2
16:10 92.5 °F /  33.6 °C 44.2 °F /  6.8 °C 29.57in /  1001.2hPa North 9.0mph /  14.5km/h 9.0mph /  14.5km/h 19% 0.00in /  0mm 909.0 W/m2
16:15 92.5 °F /  33.6 °C 44.2 °F /  6.8 °C 29.57in /  1001.2hPa NNE 4.9mph /  7.9km/h 8.0mph /  12.9km/h 19% 0.00in /  0mm 898.0 W/m2
16:20 92.7 °F /  33.7 °C 44.4 °F /  6.9 °C 29.57in /  1001.2hPa North 2.0mph /  3.2km/h 7.0mph /  11.3km/h 19% 0.00in /  0mm 322.0 W/m2
16:25 92.8 °F /  33.8 °C 44.6 °F /  7 °C 29.57in /  1001.2hPa Calm   6.0mph /  9.7km/h 19% 0.00in /  0mm 399.0 W/m2
16:30 92.5 °F /  33.6 °C 44.2 °F /  6.8 °C 29.57in /  1001.2hPa West 0.9mph /  1.4km/h 9.0mph /  14.5km/h 19% 0.00in /  0mm 255.0 W/m2
16:35 91.8 °F /  33.2 °C 43.7 °F /  6.5 °C 29.56in /  1000.9hPa Calm   2.0mph /  3.2km/h 19% 0.00in /  0mm 225.0 W/m2
16:40 91.2 °F /  32.9 °C 44.6 °F /  7 °C 29.56in /  1000.9hPa Calm   7.0mph /  11.3km/h 20% 0.00in /  0mm 308.0 W/m2
16:45 90.9 °F /  32.7 °C 44.2 °F /  6.8 °C 29.56in /  1000.9hPa Calm   3.0mph /  4.8km/h 20% 0.00in /  0mm 264.0 W/m2
16:51 90.5 °F /  32.5 °C 45.3 °F /  7.4 °C 29.56in /  1000.9hPa NNW 0.9mph /  1.4km/h 3.0mph /  4.8km/h 21% 0.00in /  0mm 207.0 W/m2
16:56 90.3 °F /  32.4 °C 43.9 °F /  6.6 °C 29.56in /  1000.9hPa Calm   4.0mph /  6.4km/h 20% 0.00in /  0mm 246.0 W/m2
17:01 90.1 °F /  32.3 °C 45.0 °F /  7.2 °C 29.56in /  1000.9hPa WSW 4.0mph /  6.4km/h 6.0mph /  9.7km/h 21% 0.00in /  0mm 615.0 W/m2
17:06 90.7 °F /  32.6 °C 44.1 °F /  6.7 °C 29.56in /  1000.9hPa West 0.9mph /  1.4km/h 3.0mph /  4.8km/h 20% 0.00in /  0mm 285.0 W/m2
17:12 90.7 °F /  32.6 °C 44.1 °F /  6.7 °C 29.56in /  1000.9hPa West 2.0mph /  3.2km/h 3.0mph /  4.8km/h 20% 0.00in /  0mm 207.0 W/m2
17:17 90.1 °F /  32.3 °C 43.7 °F /  6.5 °C 29.56in /  1000.9hPa West 2.0mph /  3.2km/h 9.0mph /  14.5km/h 20% 0.00in /  0mm 308.0 W/m2
17:22 89.2 °F /  31.8 °C 44.2 °F /  6.8 °C 29.55in /  1000.6hPa West 0.9mph /  1.4km/h 4.0mph /  6.4km/h 21% 0.00in /  0mm 195.0 W/m2
17:27 88.5 °F /  31.4 °C 43.5 °F /  6.4 °C 29.56in /  1000.9hPa WSW 4.9mph /  7.9km/h 7.0mph /  11.3km/h 21% 0.00in /  0mm 232.0 W/m2
17:32 88.2 °F /  31.2 °C 43.3 °F /  6.3 °C 29.56in /  1000.9hPa WSW 0.9mph /  1.4km/h 5.0mph /  8km/h 21% 0.00in /  0mm 162.0 W/m2
17:37 87.8 °F /  31 °C 43.0 °F /  6.1 °C 29.56in /  1000.9hPa Calm   5.0mph /  8km/h 21% 0.00in /  0mm 127.0 W/m2
17:43 87.6 °F /  30.9 °C 44.1 °F /  6.7 °C 29.56in /  1000.9hPa Calm   7.0mph /  11.3km/h 22% 0.00in /  0mm 114.0 W/m2
17:48 87.4 °F /  30.8 °C 43.9 °F /  6.6 °C 29.56in /  1000.9hPa NNE 0.9mph /  1.4km/h 1.0mph /  1.6km/h 22% 0.00in /  0mm 91.0 W/m2
17:53 87.4 °F /  30.8 °C 43.9 °F /  6.6 °C 29.56in /  1000.9hPa Calm   1.0mph /  1.6km/h 22% 0.00in /  0mm 97.0 W/m2
17:58 87.3 °F /  30.7 °C 43.7 °F /  6.5 °C 29.56in /  1000.9hPa SW 2.0mph /  3.2km/h 3.0mph /  4.8km/h 22% 0.00in /  0mm 105.0 W/m2
18:03 87.1 °F /  30.6 °C 43.7 °F /  6.5 °C 29.57in /  1001.2hPa SW 2.9mph /  4.7km/h 9.0mph /  14.5km/h 22% 0.00in /  0mm 120.0 W/m2
18:08 86.7 °F /  30.4 °C 43.3 °F /  6.3 °C 29.57in /  1001.2hPa WSW 0.9mph /  1.4km/h 9.0mph /  14.5km/h 22% 0.00in /  0mm 237.0 W/m2
18:13 87.3 °F /  30.7 °C 43.7 °F /  6.5 °C 29.57in /  1001.2hPa Calm   8.0mph /  12.9km/h 22% 0.00in /  0mm 348.0 W/m2
18:18 88.0 °F /  31.1 °C 44.4 °F /  6.9 °C 29.57in /  1001.2hPa WNW 4.9mph /  7.9km/h 5.0mph /  8km/h 22% 0.00in /  0mm 311.0 W/m2
18:23 88.5 °F /  31.4 °C 43.5 °F /  6.4 °C 29.57in /  1001.2hPa Calm   7.0mph /  11.3km/h 21% 0.00in /  0mm 269.0 W/m2
18:29 88.9 °F /  31.6 °C 43.9 °F /  6.6 °C 29.57in /  1001.2hPa WSW 2.0mph /  3.2km/h 8.0mph /  12.9km/h 21% 0.00in /  0mm 257.0 W/m2
18:34 88.7 °F /  31.5 °C 43.7 °F /  6.5 °C 29.57in /  1001.2hPa West 2.9mph /  4.7km/h 9.0mph /  14.5km/h 21% 0.00in /  0mm 237.0 W/m2
18:39 88.5 °F /  31.4 °C 43.5 °F /  6.4 °C 29.57in /  1001.2hPa WSW 6.9mph /  11.1km/h 8.0mph /  12.9km/h 21% 0.00in /  0mm 213.0 W/m2
18:44 88.3 °F /  31.3 °C 43.5 °F /  6.4 °C 29.57in /  1001.2hPa West 6.0mph /  9.7km/h 6.0mph /  9.7km/h 21% 0.00in /  0mm 188.0 W/m2
18:49 87.8 °F /  31 °C 43.0 °F /  6.1 °C 29.58in /  1001.6hPa WSW 2.9mph /  4.7km/h 7.0mph /  11.3km/h 21% 0.00in /  0mm 172.0 W/m2
18:54 87.1 °F /  30.6 °C 42.4 °F /  5.8 °C 29.58in /  1001.6hPa WSW 10.1mph /  16.3km/h 10.1mph /  16.3km/h 21% 0.00in /  0mm 91.0 W/m2
18:59 86.5 °F /  30.3 °C 41.9 °F /  5.5 °C 29.58in /  1001.6hPa West 8.1mph /  13km/h 8.1mph /  13km/h 21% 0.00in /  0mm 62.0 W/m2
19:04 86.2 °F /  30.1 °C 42.8 °F /  6 °C 29.59in /  1001.9hPa West 2.9mph /  4.7km/h 9.0mph /  14.5km/h 22% 0.00in /  0mm 60.0 W/m2
19:09 85.8 °F /  29.9 °C 41.4 °F /  5.2 °C 29.59in /  1001.9hPa West 0.9mph /  1.4km/h 8.0mph /  12.9km/h 21% 0.00in /  0mm 54.0 W/m2
19:14 85.5 °F /  29.7 °C 41.0 °F /  5 °C 29.59in /  1001.9hPa WSW 2.0mph /  3.2km/h 10.0mph /  16.1km/h 21% 0.00in /  0mm 54.0 W/m2
19:20 84.9 °F /  29.4 °C 40.6 °F /  4.8 °C 29.60in /  1002.3hPa WSW 8.1mph /  13km/h 10.0mph /  16.1km/h 21% 0.00in /  0mm 44.0 W/m2
19:25 84.6 °F /  29.2 °C 41.5 °F /  5.3 °C 29.60in /  1002.3hPa WSW 6.9mph /  11.1km/h 8.0mph /  12.9km/h 22% 0.00in /  0mm 26.0 W/m2
19:30 84.0 °F /  28.9 °C 41.0 °F /  5 °C 29.61in /  1002.6hPa West 2.9mph /  4.7km/h 5.0mph /  8km/h 22% 0.00in /  0mm 14.0 W/m2
19:35 83.8 °F /  28.8 °C 43.2 °F /  6.2 °C 29.61in /  1002.6hPa Calm   5.0mph /  8km/h 24% 0.00in /  0mm 7.0 W/m2
19:40 83.7 °F /  28.7 °C 44.1 °F /  6.7 °C 29.62in /  1002.9hPa SE 6.9mph /  11.1km/h 9.0mph /  14.5km/h 25% 0.00in /  0mm 0.0 W/m2
19:45 83.3 °F /  28.5 °C 44.8 °F /  7.1 °C 29.62in /  1002.9hPa South 0.9mph /  1.4km/h 11.0mph /  17.7km/h 26% 0.00in /  0mm 0.0 W/m2
19:50 82.9 °F /  28.3 °C 44.6 °F /  7 °C 29.62in /  1002.9hPa SE 0.9mph /  1.4km/h 2.0mph /  3.2km/h 26% 0.00in /  0mm 0.0 W/m2
19:55 82.9 °F /  28.3 °C 44.6 °F /  7 °C 29.62in /  1002.9hPa SSE 2.9mph /  4.7km/h 9.0mph /  14.5km/h 26% 0.00in /  0mm 0.0 W/m2
20:00 82.8 °F /  28.2 °C 44.4 °F /  6.9 °C 29.62in /  1002.9hPa East 4.0mph /  6.4km/h 5.0mph /  8km/h 26% 0.00in /  0mm 0.0 W/m2
20:06 82.6 °F /  28.1 °C 44.2 °F /  6.8 °C 29.62in /  1002.9hPa SSE 4.0mph /  6.4km/h 7.0mph /  11.3km/h 26% 0.00in /  0mm 0.0 W/m2
20:11 82.4 °F /  28 °C 46.0 °F /  7.8 °C 29.63in /  1003.3hPa SSE 4.0mph /  6.4km/h 7.0mph /  11.3km/h 28% 0.00in /  0mm 0.0 W/m2
20:16 82.0 °F /  27.8 °C 45.7 °F /  7.6 °C 29.63in /  1003.3hPa Calm   5.0mph /  8km/h 28% 0.00in /  0mm 0.0 W/m2
20:21 81.9 °F /  27.7 °C 44.6 °F /  7 °C 29.63in /  1003.3hPa WSW 2.0mph /  3.2km/h 4.0mph /  6.4km/h 27% 0.00in /  0mm 0.0 W/m2
20:26 81.3 °F /  27.4 °C 39.9 °F /  4.4 °C 29.64in /  1003.6hPa WSW 2.9mph /  4.7km/h 9.0mph /  14.5km/h 23% 0.00in /  0mm 0.0 W/m2
20:31 81.0 °F /  27.2 °C 40.8 °F /  4.9 °C 29.64in /  1003.6hPa WSW 2.9mph /  4.7km/h 9.0mph /  14.5km/h 24% 0.00in /  0mm 0.0 W/m2
20:36 80.4 °F /  26.9 °C 40.3 °F /  4.6 °C 29.64in /  1003.6hPa West 2.0mph /  3.2km/h 10.0mph /  16.1km/h 24% 0.00in /  0mm 0.0 W/m2
20:41 80.1 °F /  26.7 °C 40.1 °F /  4.5 °C 29.65in /  1003.9hPa SW 6.0mph /  9.7km/h 12.0mph /  19.3km/h 24% 0.00in /  0mm 0.0 W/m2
20:46 79.5 °F /  26.4 °C 40.6 °F /  4.8 °C 29.65in /  1003.9hPa West 6.9mph /  11.1km/h 10.0mph /  16.1km/h 25% 0.00in /  0mm 0.0 W/m2
20:52 79.0 °F /  26.1 °C 40.1 °F /  4.5 °C 29.65in /  1003.9hPa WSW 2.9mph /  4.7km/h 11.0mph /  17.7km/h 25% 0.00in /  0mm 0.0 W/m2
20:57 78.4 °F /  25.8 °C 39.7 °F /  4.3 °C 29.65in /  1003.9hPa South 2.0mph /  3.2km/h 10.0mph /  16.1km/h 25% 0.00in /  0mm 0.0 W/m2
21:02 78.3 °F /  25.7 °C 39.6 °F /  4.2 °C 29.65in /  1003.9hPa SSW 2.9mph /  4.7km/h 8.0mph /  12.9km/h 25% 0.00in /  0mm 0.0 W/m2
21:07 77.7 °F /  25.4 °C 40.1 °F /  4.5 °C 29.65in /  1003.9hPa WSW 0.9mph /  1.4km/h 10.0mph /  16.1km/h 26% 0.00in /  0mm 0.0 W/m2
21:12 77.5 °F /  25.3 °C 39.9 °F /  4.4 °C 29.66in /  1004.3hPa WSW 2.0mph /  3.2km/h 5.0mph /  8km/h 26% 0.00in /  0mm 0.0 W/m2
21:17 77.4 °F /  25.2 °C 39.7 °F /  4.3 °C 29.66in /  1004.3hPa WSW 0.9mph /  1.4km/h 8.0mph /  12.9km/h 26% 0.00in /  0mm 0.0 W/m2
21:22 77.2 °F /  25.1 °C 39.6 °F /  4.2 °C 29.66in /  1004.3hPa WSW 4.0mph /  6.4km/h 8.0mph /  12.9km/h 26% 0.00in /  0mm 0.0 W/m2
21:27 76.8 °F /  24.9 °C 39.4 °F /  4.1 °C 29.66in /  1004.3hPa South 2.0mph /  3.2km/h 6.0mph /  9.7km/h 26% 0.00in /  0mm 0.0 W/m2
21:32 76.6 °F /  24.8 °C 40.1 °F /  4.5 °C 29.66in /  1004.3hPa SSW 2.9mph /  4.7km/h 5.0mph /  8km/h 27% 0.00in /  0mm 0.0 W/m2
21:37 76.3 °F /  24.6 °C 39.9 °F /  4.4 °C 29.67in /  1004.6hPa WSW 8.1mph /  13km/h 8.1mph /  13km/h 27% 0.00in /  0mm 0.0 W/m2
21:42 75.9 °F /  24.4 °C 39.6 °F /  4.2 °C 29.67in /  1004.6hPa SSW 2.0mph /  3.2km/h 5.0mph /  8km/h 27% 0.00in /  0mm 0.0 W/m2
21:47 75.7 °F /  24.3 °C 39.4 °F /  4.1 °C 29.67in /  1004.6hPa SW 4.0mph /  6.4km/h 6.0mph /  9.7km/h 27% 0.00in /  0mm 0.0 W/m2
21:52 75.6 °F /  24.2 °C 40.1 °F /  4.5 °C 29.67in /  1004.6hPa SW 2.0mph /  3.2km/h 7.0mph /  11.3km/h 28% 0.00in /  0mm 0.0 W/m2
21:57 75.6 °F /  24.2 °C 40.1 °F /  4.5 °C 29.67in /  1004.6hPa WSW 2.0mph /  3.2km/h 7.0mph /  11.3km/h 28% 0.00in /  0mm 0.0 W/m2
22:03 75.4 °F /  24.1 °C 40.1 °F /  4.5 °C 29.67in /  1004.6hPa SW 2.9mph /  4.7km/h 10.0mph /  16.1km/h 28% 0.00in /  0mm 0.0 W/m2
22:08 75.0 °F /  23.9 °C 39.7 °F /  4.3 °C 29.67in /  1004.6hPa SW 2.9mph /  4.7km/h 7.0mph /  11.3km/h 28% 0.00in /  0mm 0.0 W/m2
22:13 74.8 °F /  23.8 °C 40.5 °F /  4.7 °C 29.67in /  1004.6hPa WSW 2.9mph /  4.7km/h 4.0mph /  6.4km/h 29% 0.00in /  0mm 0.0 W/m2
22:18 74.8 °F /  23.8 °C 40.5 °F /  4.7 °C 29.67in /  1004.6hPa SSW 2.9mph /  4.7km/h 3.0mph /  4.8km/h 29% 0.00in /  0mm 0.0 W/m2
22:23 74.7 °F /  23.7 °C 40.3 °F /  4.6 °C 29.67in /  1004.6hPa SW 2.9mph /  4.7km/h 6.0mph /  9.7km/h 29% 0.00in /  0mm 0.0 W/m2
22:28 74.7 °F /  23.7 °C 40.3 °F /  4.6 °C 29.67in /  1004.6hPa Calm   1.0mph /  1.6km/h 29% 0.00in /  0mm 0.0 W/m2
22:33 74.7 °F /  23.7 °C 40.3 °F /  4.6 °C 29.67in /  1004.6hPa WSW 2.0mph /  3.2km/h 4.0mph /  6.4km/h 29% 0.00in /  0mm 0.0 W/m2
22:39 74.5 °F /  23.6 °C 40.1 °F /  4.5 °C 29.67in /  1004.6hPa SW 2.0mph /  3.2km/h 4.0mph /  6.4km/h 29% 0.00in /  0mm 0.0 W/m2
22:44 74.5 °F /  23.6 °C 40.1 °F /  4.5 °C 29.68in /  1005hPa Calm   3.0mph /  4.8km/h 29% 0.00in /  0mm 0.0 W/m2
22:49 74.5 °F /  23.6 °C 40.1 °F /  4.5 °C 29.68in /  1005hPa Calm   1.0mph /  1.6km/h 29% 0.00in /  0mm 0.0 W/m2
22:54 74.3 °F /  23.5 °C 40.8 °F /  4.9 °C 29.67in /  1004.6hPa Calm     30% 0.00in /  0mm 0.0 W/m2
22:59 74.1 °F /  23.4 °C 40.6 °F /  4.8 °C 29.68in /  1005hPa Calm     30% 0.00in /  0mm 0.0 W/m2
23:04 73.9 °F /  23.3 °C 40.5 °F /  4.7 °C 29.68in /  1005hPa Calm   1.0mph /  1.6km/h 30% 0.00in /  0mm 0.0 W/m2
23:09 73.9 °F /  23.3 °C 41.4 °F /  5.2 °C 29.69in /  1005.3hPa Calm   2.0mph /  3.2km/h 31% 0.00in /  0mm 0.0 W/m2
23:14 73.9 °F /  23.3 °C 41.4 °F /  5.2 °C 29.69in /  1005.3hPa Calm   1.0mph /  1.6km/h 31% 0.00in /  0mm 0.0 W/m2
23:19 73.9 °F /  23.3 °C 41.4 °F /  5.2 °C 29.69in /  1005.3hPa Calm     31% 0.00in /  0mm 0.0 W/m2
23:24 73.9 °F /  23.3 °C 41.4 °F /  5.2 °C 29.69in /  1005.3hPa Calm   1.0mph /  1.6km/h 31% 0.00in /  0mm 0.0 W/m2
23:29 73.8 °F /  23.2 °C 41.2 °F /  5.1 °C 29.70in /  1005.6hPa East 0.9mph /  1.4km/h 1.0mph /  1.6km/h 31% 0.00in /  0mm 0.0 W/m2
23:34 73.6 °F /  23.1 °C 41.0 °F /  5 °C 29.70in /  1005.6hPa Calm   1.0mph /  1.6km/h 31% 0.00in /  0mm 0.0 W/m2
23:40 73.6 °F /  23.1 °C 41.0 °F /  5 °C 29.70in /  1005.6hPa Calm   1.0mph /  1.6km/h 31% 0.00in /  0mm 0.0 W/m2
23:45 73.2 °F /  22.9 °C 40.8 °F /  4.9 °C 29.70in /  1005.6hPa Calm   1.0mph /  1.6km/h 31% 0.00in /  0mm 0.0 W/m2
23:50 73.0 °F /  22.8 °C 40.6 °F /  4.8 °C 29.70in /  1005.6hPa NE 2.0mph /  3.2km/h 5.0mph /  8km/h 31% 0.00in /  0mm 0.0 W/m2
23:55 72.9 °F /  22.7 °C 40.5 °F /  4.7 °C 29.71in /  1006hPa Calm   7.0mph /  11.3km/h 31% 0.00in /  0mm 0.0 W/m2
Olympia, Windhoek, Namibia
Compliments of Weather Underground - 3.25 mb